sensor_id;sensor_type;location;lat;lon;timestamp;P1;durP1;ratioP1;P2;durP2;ratioP2
17618;SDS011;8928;51.678;6.074;2023-08-06T00:01:00;13.10;;;6.30;;
17618;SDS011;8928;51.678;6.074;2023-08-06T00:03:48;15.10;;;5.90;;
17618;SDS011;8928;51.678;6.074;2023-08-06T00:06:35;12.77;;;6.50;;
17618;SDS011;8928;51.678;6.074;2023-08-06T00:09:22;12.93;;;6.73;;
17618;SDS011;8928;51.678;6.074;2023-08-06T00:12:10;16.70;;;6.73;;
17618;SDS011;8928;51.678;6.074;2023-08-06T00:14:57;13.53;;;6.53;;
17618;SDS011;8928;51.678;6.074;2023-08-06T00:17:44;13.30;;;6.77;;
17618;SDS011;8928;51.678;6.074;2023-08-06T00:20:31;13.50;;;7.00;;
17618;SDS011;8928;51.678;6.074;2023-08-06T00:23:18;12.87;;;6.80;;
17618;SDS011;8928;51.678;6.074;2023-08-06T00:26:07;17.43;;;6.73;;
17618;SDS011;8928;51.678;6.074;2023-08-06T00:28:55;13.53;;;6.63;;
17618;SDS011;8928;51.678;6.074;2023-08-06T00:31:43;15.67;;;7.03;;
17618;SDS011;8928;51.678;6.074;2023-08-06T00:34:30;13.50;;;6.93;;
17618;SDS011;8928;51.678;6.074;2023-08-06T00:37:17;11.70;;;6.40;;
17618;SDS011;8928;51.678;6.074;2023-08-06T00:40:04;12.77;;;6.20;;
17618;SDS011;8928;51.678;6.074;2023-08-06T00:42:52;13.90;;;6.10;;
17618;SDS011;8928;51.678;6.074;2023-08-06T00:45:41;11.63;;;6.10;;
17618;SDS011;8928;51.678;6.074;2023-08-06T00:48:28;12.23;;;6.17;;
17618;SDS011;8928;51.678;6.074;2023-08-06T00:51:15;12.77;;;5.80;;
17618;SDS011;8928;51.678;6.074;2023-08-06T00:54:02;11.93;;;6.33;;
17618;SDS011;8928;51.678;6.074;2023-08-06T00:56:49;10.43;;;6.07;;
17618;SDS011;8928;51.678;6.074;2023-08-06T00:59:37;17.30;;;5.93;;
17618;SDS011;8928;51.678;6.074;2023-08-06T01:02:25;10.63;;;6.00;;
17618;SDS011;8928;51.678;6.074;2023-08-06T01:05:12;14.77;;;5.70;;
17618;SDS011;8928;51.678;6.074;2023-08-06T01:08:04;11.83;;;5.43;;
17618;SDS011;8928;51.678;6.074;2023-08-06T01:11:00;9.97;;;5.33;;
17618;SDS011;8928;51.678;6.074;2023-08-06T01:13:58;9.80;;;5.30;;
17618;SDS011;8928;51.678;6.074;2023-08-06T01:16:48;12.50;;;5.80;;
17618;SDS011;8928;51.678;6.074;2023-08-06T01:19:38;16.23;;;5.90;;
17618;SDS011;8928;51.678;6.074;2023-08-06T01:22:26;14.80;;;6.50;;
17618;SDS011;8928;51.678;6.074;2023-08-06T01:25:13;13.93;;;5.73;;
17618;SDS011;8928;51.678;6.074;2023-08-06T01:28:04;13.03;;;6.37;;
17618;SDS011;8928;51.678;6.074;2023-08-06T01:31:02;18.27;;;6.30;;
17618;SDS011;8928;51.678;6.074;2023-08-06T01:33:50;11.53;;;6.03;;
17618;SDS011;8928;51.678;6.074;2023-08-06T01:36:39;11.10;;;6.10;;
17618;SDS011;8928;51.678;6.074;2023-08-06T01:39:28;12.37;;;5.63;;
17618;SDS011;8928;51.678;6.074;2023-08-06T01:42:17;15.73;;;5.37;;
17618;SDS011;8928;51.678;6.074;2023-08-06T01:45:05;10.83;;;5.40;;
17618;SDS011;8928;51.678;6.074;2023-08-06T01:47:52;12.20;;;5.30;;
17618;SDS011;8928;51.678;6.074;2023-08-06T01:50:39;15.63;;;5.23;;
17618;SDS011;8928;51.678;6.074;2023-08-06T01:53:26;10.00;;;5.33;;
17618;SDS011;8928;51.678;6.074;2023-08-06T01:56:15;9.87;;;5.50;;
17618;SDS011;8928;51.678;6.074;2023-08-06T01:59:02;13.47;;;5.43;;
17618;SDS011;8928;51.678;6.074;2023-08-06T02:01:49;9.87;;;5.70;;
17618;SDS011;8928;51.678;6.074;2023-08-06T02:04:36;10.23;;;5.50;;
17618;SDS011;8928;51.678;6.074;2023-08-06T02:07:23;8.87;;;5.53;;
17618;SDS011;8928;51.678;6.074;2023-08-06T02:10:10;11.10;;;5.77;;
17618;SDS011;8928;51.678;6.074;2023-08-06T02:12:58;11.90;;;5.90;;
17618;SDS011;8928;51.678;6.074;2023-08-06T02:15:45;14.33;;;6.40;;
17618;SDS011;8928;51.678;6.074;2023-08-06T02:18:33;12.97;;;5.80;;
17618;SDS011;8928;51.678;6.074;2023-08-06T02:21:20;11.70;;;5.90;;
17618;SDS011;8928;51.678;6.074;2023-08-06T02:24:07;10.17;;;5.83;;
17618;SDS011;8928;51.678;6.074;2023-08-06T02:26:54;10.20;;;6.20;;
17618;SDS011;8928;51.678;6.074;2023-08-06T02:29:43;11.53;;;6.00;;
17618;SDS011;8928;51.678;6.074;2023-08-06T02:32:30;15.27;;;6.17;;
17618;SDS011;8928;51.678;6.074;2023-08-06T02:35:20;12.50;;;6.70;;
17618;SDS011;8928;51.678;6.074;2023-08-06T02:38:08;14.30;;;6.30;;
17618;SDS011;8928;51.678;6.074;2023-08-06T02:40:55;11.90;;;6.97;;
17618;SDS011;8928;51.678;6.074;2023-08-06T02:43:42;12.87;;;6.50;;
17618;SDS011;8928;51.678;6.074;2023-08-06T02:46:31;11.00;;;6.03;;
17618;SDS011;8928;51.678;6.074;2023-08-06T02:49:18;13.53;;;7.00;;
17618;SDS011;8928;51.678;6.074;2023-08-06T02:52:05;11.50;;;6.07;;
17618;SDS011;8928;51.678;6.074;2023-08-06T02:54:53;14.20;;;6.83;;
17618;SDS011;8928;51.678;6.074;2023-08-06T02:57:40;18.27;;;7.00;;
17618;SDS011;8928;51.678;6.074;2023-08-06T03:00:27;11.90;;;6.80;;
17618;SDS011;8928;51.678;6.074;2023-08-06T03:03:15;11.80;;;6.77;;
17618;SDS011;8928;51.678;6.074;2023-08-06T03:06:02;13.80;;;7.10;;
17618;SDS011;8928;51.678;6.074;2023-08-06T03:08:49;12.90;;;6.90;;
17618;SDS011;8928;51.678;6.074;2023-08-06T03:11:36;13.63;;;6.93;;
17618;SDS011;8928;51.678;6.074;2023-08-06T03:14:25;13.37;;;7.30;;
17618;SDS011;8928;51.678;6.074;2023-08-06T03:17:12;15.90;;;7.87;;
17618;SDS011;8928;51.678;6.074;2023-08-06T03:20:01;17.20;;;7.53;;
17618;SDS011;8928;51.678;6.074;2023-08-06T03:22:49;15.10;;;7.67;;
17618;SDS011;8928;51.678;6.074;2023-08-06T03:25:36;16.03;;;7.90;;
17618;SDS011;8928;51.678;6.074;2023-08-06T03:28:23;16.17;;;8.20;;
17618;SDS011;8928;51.678;6.074;2023-08-06T03:31:10;17.80;;;8.53;;
17618;SDS011;8928;51.678;6.074;2023-08-06T03:33:57;17.40;;;8.17;;
17618;SDS011;8928;51.678;6.074;2023-08-06T03:36:46;16.93;;;8.53;;
17618;SDS011;8928;51.678;6.074;2023-08-06T03:39:33;19.13;;;9.30;;
17618;SDS011;8928;51.678;6.074;2023-08-06T03:42:20;18.83;;;9.77;;
17618;SDS011;8928;51.678;6.074;2023-08-06T03:45:07;27.57;;;9.80;;
17618;SDS011;8928;51.678;6.074;2023-08-06T03:47:55;16.40;;;9.47;;
17618;SDS011;8928;51.678;6.074;2023-08-06T03:50:42;22.23;;;9.67;;
17618;SDS011;8928;51.678;6.074;2023-08-06T03:53:30;24.77;;;11.23;;
17618;SDS011;8928;51.678;6.074;2023-08-06T03:56:17;25.80;;;12.17;;
17618;SDS011;8928;51.678;6.074;2023-08-06T03:59:04;25.60;;;12.10;;
17618;SDS011;8928;51.678;6.074;2023-08-06T04:01:51;28.93;;;11.63;;
17618;SDS011;8928;51.678;6.074;2023-08-06T04:04:38;27.03;;;12.57;;
17618;SDS011;8928;51.678;6.074;2023-08-06T04:07:25;25.93;;;13.33;;
17618;SDS011;8928;51.678;6.074;2023-08-06T04:10:14;23.37;;;13.47;;
17618;SDS011;8928;51.678;6.074;2023-08-06T04:13:01;27.57;;;14.23;;
17618;SDS011;8928;51.678;6.074;2023-08-06T04:15:48;39.47;;;13.53;;
17618;SDS011;8928;51.678;6.074;2023-08-06T04:18:35;32.37;;;14.30;;
17618;SDS011;8928;51.678;6.074;2023-08-06T04:21:22;28.20;;;14.87;;
17618;SDS011;8928;51.678;6.074;2023-08-06T04:24:09;32.50;;;15.37;;
17618;SDS011;8928;51.678;6.074;2023-08-06T04:26:57;32.93;;;15.20;;
17618;SDS011;8928;51.678;6.074;2023-08-06T04:29:44;33.10;;;15.13;;
17618;SDS011;8928;51.678;6.074;2023-08-06T04:32:31;31.53;;;15.17;;
17618;SDS011;8928;51.678;6.074;2023-08-06T04:35:18;34.33;;;14.93;;
17618;SDS011;8928;51.678;6.074;2023-08-06T04:38:06;26.20;;;14.40;;
17618;SDS011;8928;51.678;6.074;2023-08-06T04:40:53;34.83;;;15.33;;
17618;SDS011;8928;51.678;6.074;2023-08-06T04:43:41;32.77;;;15.30;;
17618;SDS011;8928;51.678;6.074;2023-08-06T04:46:28;29.10;;;15.37;;
17618;SDS011;8928;51.678;6.074;2023-08-06T04:49:15;29.30;;;14.73;;
17618;SDS011;8928;51.678;6.074;2023-08-06T04:52:02;32.00;;;15.47;;
17618;SDS011;8928;51.678;6.074;2023-08-06T04:54:50;29.53;;;15.53;;
17618;SDS011;8928;51.678;6.074;2023-08-06T04:57:37;35.07;;;15.70;;
17618;SDS011;8928;51.678;6.074;2023-08-06T05:00:25;32.83;;;16.17;;
17618;SDS011;8928;51.678;6.074;2023-08-06T05:03:12;31.20;;;15.60;;
17618;SDS011;8928;51.678;6.074;2023-08-06T05:05:59;29.53;;;14.90;;
17618;SDS011;8928;51.678;6.074;2023-08-06T05:08:46;25.33;;;13.87;;
17618;SDS011;8928;51.678;6.074;2023-08-06T05:11:33;29.40;;;14.77;;
17618;SDS011;8928;51.678;6.074;2023-08-06T05:14:20;26.40;;;14.33;;
17618;SDS011;8928;51.678;6.074;2023-08-06T05:17:09;25.83;;;13.90;;
17618;SDS011;8928;51.678;6.074;2023-08-06T05:19:56;25.20;;;13.77;;
17618;SDS011;8928;51.678;6.074;2023-08-06T05:22:43;25.30;;;13.93;;
17618;SDS011;8928;51.678;6.074;2023-08-06T05:25:30;25.20;;;13.50;;
17618;SDS011;8928;51.678;6.074;2023-08-06T05:28:17;23.30;;;12.77;;
17618;SDS011;8928;51.678;6.074;2023-08-06T05:31:04;21.10;;;12.60;;
17618;SDS011;8928;51.678;6.074;2023-08-06T05:33:52;24.27;;;12.10;;
17618;SDS011;8928;51.678;6.074;2023-08-06T05:36:39;24.03;;;12.47;;
17618;SDS011;8928;51.678;6.074;2023-08-06T05:39:26;24.87;;;11.13;;
17618;SDS011;8928;51.678;6.074;2023-08-06T05:42:13;21.03;;;11.23;;
17618;SDS011;8928;51.678;6.074;2023-08-06T05:45:01;18.13;;;11.30;;
17618;SDS011;8928;51.678;6.074;2023-08-06T05:47:48;18.93;;;10.67;;
17618;SDS011;8928;51.678;6.074;2023-08-06T05:50:36;20.10;;;11.13;;
17618;SDS011;8928;51.678;6.074;2023-08-06T05:53:23;17.23;;;9.87;;
17618;SDS011;8928;51.678;6.074;2023-08-06T05:56:10;17.37;;;9.77;;
17618;SDS011;8928;51.678;6.074;2023-08-06T05:58:57;15.83;;;9.60;;
17618;SDS011;8928;51.678;6.074;2023-08-06T06:01:44;14.73;;;9.47;;
17618;SDS011;8928;51.678;6.074;2023-08-06T06:04:31;16.50;;;8.87;;
17618;SDS011;8928;51.678;6.074;2023-08-06T06:07:20;18.27;;;8.53;;
17618;SDS011;8928;51.678;6.074;2023-08-06T06:10:07;19.20;;;8.60;;
17618;SDS011;8928;51.678;6.074;2023-08-06T06:12:55;15.77;;;8.40;;
17618;SDS011;8928;51.678;6.074;2023-08-06T06:15:42;14.73;;;8.63;;
17618;SDS011;8928;51.678;6.074;2023-08-06T06:18:29;13.33;;;8.80;;
17618;SDS011;8928;51.678;6.074;2023-08-06T06:21:16;16.53;;;9.20;;
17618;SDS011;8928;51.678;6.074;2023-08-06T06:24:04;13.77;;;8.90;;
17618;SDS011;8928;51.678;6.074;2023-08-06T06:26:52;14.05;;;9.00;;
17618;SDS011;8928;51.678;6.074;2023-08-06T06:29:39;20.40;;;9.30;;
17618;SDS011;8928;51.678;6.074;2023-08-06T06:32:26;14.68;;;10.02;;
17618;SDS011;8928;51.678;6.074;2023-08-06T06:35:14;19.30;;;9.82;;
17618;SDS011;8928;51.678;6.074;2023-08-06T06:38:01;17.33;;;9.93;;
17618;SDS011;8928;51.678;6.074;2023-08-06T06:40:54;17.50;;;9.57;;
17618;SDS011;8928;51.678;6.074;2023-08-06T06:43:41;17.40;;;9.13;;
17618;SDS011;8928;51.678;6.074;2023-08-06T06:46:28;17.52;;;9.00;;
17618;SDS011;8928;51.678;6.074;2023-08-06T06:49:15;16.02;;;9.10;;
17618;SDS011;8928;51.678;6.074;2023-08-06T06:52:03;13.18;;;8.73;;
17618;SDS011;8928;51.678;6.074;2023-08-06T06:54:50;15.43;;;8.52;;
17618;SDS011;8928;51.678;6.074;2023-08-06T06:57:39;11.82;;;7.47;;
17618;SDS011;8928;51.678;6.074;2023-08-06T07:00:26;11.85;;;6.85;;
17618;SDS011;8928;51.678;6.074;2023-08-06T07:03:13;12.35;;;7.53;;
17618;SDS011;8928;51.678;6.074;2023-08-06T07:06:00;12.30;;;6.40;;
17618;SDS011;8928;51.678;6.074;2023-08-06T07:08:47;11.25;;;7.30;;
17618;SDS011;8928;51.678;6.074;2023-08-06T07:11:34;11.35;;;7.63;;
17618;SDS011;8928;51.678;6.074;2023-08-06T07:14:22;12.70;;;6.93;;
17618;SDS011;8928;51.678;6.074;2023-08-06T07:17:11;14.20;;;6.50;;
17618;SDS011;8928;51.678;6.074;2023-08-06T07:19:58;11.20;;;6.90;;
17618;SDS011;8928;51.678;6.074;2023-08-06T07:22:45;11.80;;;7.15;;
17618;SDS011;8928;51.678;6.074;2023-08-06T07:25:32;10.48;;;6.43;;
17618;SDS011;8928;51.678;6.074;2023-08-06T07:28:19;11.60;;;6.15;;
17618;SDS011;8928;51.678;6.074;2023-08-06T07:31:07;13.18;;;6.70;;
17618;SDS011;8928;51.678;6.074;2023-08-06T07:33:54;11.93;;;6.50;;
17618;SDS011;8928;51.678;6.074;2023-08-06T07:36:43;10.20;;;6.47;;
17618;SDS011;8928;51.678;6.074;2023-08-06T07:39:30;8.38;;;6.60;;
17618;SDS011;8928;51.678;6.074;2023-08-06T07:42:17;11.13;;;7.15;;
17618;SDS011;8928;51.678;6.074;2023-08-06T07:45:07;13.27;;;7.43;;
17618;SDS011;8928;51.678;6.074;2023-08-06T07:47:56;10.80;;;7.63;;
17618;SDS011;8928;51.678;6.074;2023-08-06T07:50:43;14.45;;;8.43;;
17618;SDS011;8928;51.678;6.074;2023-08-06T07:53:35;12.98;;;8.55;;
17618;SDS011;8928;51.678;6.074;2023-08-06T07:56:22;13.90;;;9.43;;
17618;SDS011;8928;51.678;6.074;2023-08-06T07:59:09;16.42;;;11.70;;
17618;SDS011;8928;51.678;6.074;2023-08-06T08:01:56;18.35;;;13.35;;
17618;SDS011;8928;51.678;6.074;2023-08-06T08:04:45;24.05;;;14.95;;
17618;SDS011;8928;51.678;6.074;2023-08-06T08:07:32;21.02;;;15.18;;
17618;SDS011;8928;51.678;6.074;2023-08-06T08:10:19;23.75;;;15.27;;
17618;SDS011;8928;51.678;6.074;2023-08-06T08:13:06;20.52;;;15.02;;
17618;SDS011;8928;51.678;6.074;2023-08-06T08:15:56;18.90;;;14.73;;
17618;SDS011;8928;51.678;6.074;2023-08-06T08:18:44;25.80;;;17.58;;
17618;SDS011;8928;51.678;6.074;2023-08-06T08:21:32;31.00;;;17.42;;
17618;SDS011;8928;51.678;6.074;2023-08-06T08:24:19;22.33;;;15.63;;
17618;SDS011;8928;51.678;6.074;2023-08-06T08:27:09;23.55;;;15.90;;
17618;SDS011;8928;51.678;6.074;2023-08-06T08:29:56;23.65;;;16.08;;
17618;SDS011;8928;51.678;6.074;2023-08-06T08:32:43;24.63;;;17.63;;
17618;SDS011;8928;51.678;6.074;2023-08-06T08:35:30;23.42;;;15.70;;
17618;SDS011;8928;51.678;6.074;2023-08-06T08:38:18;23.77;;;16.45;;
17618;SDS011;8928;51.678;6.074;2023-08-06T08:41:05;22.50;;;16.63;;
17618;SDS011;8928;51.678;6.074;2023-08-06T08:43:53;23.42;;;16.00;;
17618;SDS011;8928;51.678;6.074;2023-08-06T08:46:40;20.45;;;15.15;;
17618;SDS011;8928;51.678;6.074;2023-08-06T08:49:28;23.42;;;15.45;;
17618;SDS011;8928;51.678;6.074;2023-08-06T08:52:16;19.80;;;14.13;;
17618;SDS011;8928;51.678;6.074;2023-08-06T08:55:08;21.50;;;14.52;;
17618;SDS011;8928;51.678;6.074;2023-08-06T08:57:55;22.33;;;14.32;;
17618;SDS011;8928;51.678;6.074;2023-08-06T09:00:42;15.48;;;11.70;;
17618;SDS011;8928;51.678;6.074;2023-08-06T09:03:31;15.63;;;10.60;;
17618;SDS011;8928;51.678;6.074;2023-08-06T09:06:19;15.52;;;10.48;;
17618;SDS011;8928;51.678;6.074;2023-08-06T09:09:08;15.40;;;10.20;;
17618;SDS011;8928;51.678;6.074;2023-08-06T09:12:00;8.75;;;6.95;;
17618;SDS011;8928;51.678;6.074;2023-08-06T09:14:48;11.90;;;6.43;;
17618;SDS011;8928;51.678;6.074;2023-08-06T09:17:35;7.35;;;5.20;;
17618;SDS011;8928;51.678;6.074;2023-08-06T09:20:22;5.70;;;4.05;;
17618;SDS011;8928;51.678;6.074;2023-08-06T09:23:09;6.60;;;3.80;;
17618;SDS011;8928;51.678;6.074;2023-08-06T09:25:57;6.75;;;4.40;;
17618;SDS011;8928;51.678;6.074;2023-08-06T09:28:46;7.38;;;4.50;;
17618;SDS011;8928;51.678;6.074;2023-08-06T09:31:33;5.75;;;4.80;;
17618;SDS011;8928;51.678;6.074;2023-08-06T09:34:26;5.40;;;3.87;;
17618;SDS011;8928;51.678;6.074;2023-08-06T09:37:13;3.13;;;2.20;;
17618;SDS011;8928;51.678;6.074;2023-08-06T09:40:00;2.87;;;1.63;;
17618;SDS011;8928;51.678;6.074;2023-08-06T09:42:47;3.03;;;1.60;;
17618;SDS011;8928;51.678;6.074;2023-08-06T09:45:37;3.10;;;1.37;;
17618;SDS011;8928;51.678;6.074;2023-08-06T09:48:25;5.83;;;1.80;;
17618;SDS011;8928;51.678;6.074;2023-08-06T09:51:12;4.03;;;2.17;;
17618;SDS011;8928;51.678;6.074;2023-08-06T09:54:00;3.40;;;2.50;;
17618;SDS011;8928;51.678;6.074;2023-08-06T09:56:49;5.33;;;2.40;;
17618;SDS011;8928;51.678;6.074;2023-08-06T09:59:37;4.13;;;2.10;;
17618;SDS011;8928;51.678;6.074;2023-08-06T10:02:28;3.23;;;2.20;;
17618;SDS011;8928;51.678;6.074;2023-08-06T10:05:16;4.13;;;2.30;;
17618;SDS011;8928;51.678;6.074;2023-08-06T10:08:04;6.40;;;2.80;;
17618;SDS011;8928;51.678;6.074;2023-08-06T10:10:53;10.63;;;3.03;;
17618;SDS011;8928;51.678;6.074;2023-08-06T10:13:40;10.30;;;3.50;;
17618;SDS011;8928;51.678;6.074;2023-08-06T10:16:27;6.80;;;3.43;;
17618;SDS011;8928;51.678;6.074;2023-08-06T10:19:16;10.80;;;3.40;;
17618;SDS011;8928;51.678;6.074;2023-08-06T10:22:07;5.70;;;3.37;;
17618;SDS011;8928;51.678;6.074;2023-08-06T10:24:56;5.43;;;3.27;;
17618;SDS011;8928;51.678;6.074;2023-08-06T10:27:53;5.73;;;3.67;;
17618;SDS011;8928;51.678;6.074;2023-08-06T10:30:42;6.53;;;3.53;;
17618;SDS011;8928;51.678;6.074;2023-08-06T10:33:40;7.00;;;3.60;;
17618;SDS011;8928;51.678;6.074;2023-08-06T10:36:29;5.60;;;3.33;;
17618;SDS011;8928;51.678;6.074;2023-08-06T10:39:18;18.37;;;3.33;;
17618;SDS011;8928;51.678;6.074;2023-08-06T10:42:05;6.43;;;3.20;;
17618;SDS011;8928;51.678;6.074;2023-08-06T10:45:12;5.13;;;3.47;;
17618;SDS011;8928;51.678;6.074;2023-08-06T10:48:00;10.23;;;3.70;;
17618;SDS011;8928;51.678;6.074;2023-08-06T10:50:47;6.97;;;4.00;;
17618;SDS011;8928;51.678;6.074;2023-08-06T10:53:36;6.17;;;3.80;;
17618;SDS011;8928;51.678;6.074;2023-08-06T10:56:23;6.87;;;3.90;;
17618;SDS011;8928;51.678;6.074;2023-08-06T10:59:14;8.23;;;4.10;;
17618;SDS011;8928;51.678;6.074;2023-08-06T11:02:01;5.60;;;3.90;;
17618;SDS011;8928;51.678;6.074;2023-08-06T11:04:50;7.40;;;3.73;;
17618;SDS011;8928;51.678;6.074;2023-08-06T11:07:37;7.23;;;4.50;;
17618;SDS011;8928;51.678;6.074;2023-08-06T11:10:26;7.17;;;4.17;;
17618;SDS011;8928;51.678;6.074;2023-08-06T11:13:16;7.57;;;4.40;;
17618;SDS011;8928;51.678;6.074;2023-08-06T11:16:03;9.67;;;6.00;;
17618;SDS011;8928;51.678;6.074;2023-08-06T11:18:51;9.17;;;5.60;;
17618;SDS011;8928;51.678;6.074;2023-08-06T11:21:39;8.13;;;5.33;;
17618;SDS011;8928;51.678;6.074;2023-08-06T11:24:29;10.20;;;5.80;;
17618;SDS011;8928;51.678;6.074;2023-08-06T11:27:17;11.20;;;6.40;;
17618;SDS011;8928;51.678;6.074;2023-08-06T11:30:05;8.67;;;5.83;;
17618;SDS011;8928;51.678;6.074;2023-08-06T11:32:52;10.53;;;6.17;;
17618;SDS011;8928;51.678;6.074;2023-08-06T11:35:39;12.30;;;6.00;;
17618;SDS011;8928;51.678;6.074;2023-08-06T11:38:28;10.40;;;6.87;;
17618;SDS011;8928;51.678;6.074;2023-08-06T11:41:15;10.30;;;6.30;;
17618;SDS011;8928;51.678;6.074;2023-08-06T11:44:03;11.23;;;6.60;;
17618;SDS011;8928;51.678;6.074;2023-08-06T11:46:50;11.53;;;6.70;;
17618;SDS011;8928;51.678;6.074;2023-08-06T11:49:39;15.13;;;6.87;;
17618;SDS011;8928;51.678;6.074;2023-08-06T11:52:29;10.73;;;6.40;;
17618;SDS011;8928;51.678;6.074;2023-08-06T11:55:16;17.40;;;6.70;;
17618;SDS011;8928;51.678;6.074;2023-08-06T11:58:04;19.43;;;7.30;;
17618;SDS011;8928;51.678;6.074;2023-08-06T12:00:52;14.57;;;7.23;;
17618;SDS011;8928;51.678;6.074;2023-08-06T12:03:41;11.03;;;6.40;;
17618;SDS011;8928;51.678;6.074;2023-08-06T12:06:28;13.27;;;6.60;;
17618;SDS011;8928;51.678;6.074;2023-08-06T12:09:15;11.87;;;5.87;;
17618;SDS011;8928;51.678;6.074;2023-08-06T12:12:02;12.37;;;6.30;;
17618;SDS011;8928;51.678;6.074;2023-08-06T12:14:50;13.00;;;6.10;;
17618;SDS011;8928;51.678;6.074;2023-08-06T12:17:39;12.73;;;5.73;;
17618;SDS011;8928;51.678;6.074;2023-08-06T12:20:26;10.33;;;5.57;;
17618;SDS011;8928;51.678;6.074;2023-08-06T12:23:13;10.10;;;5.10;;
17618;SDS011;8928;51.678;6.074;2023-08-06T12:26:01;11.53;;;4.77;;
17618;SDS011;8928;51.678;6.074;2023-08-06T12:28:48;11.97;;;4.77;;
17618;SDS011;8928;51.678;6.074;2023-08-06T12:31:35;8.23;;;4.77;;
17618;SDS011;8928;51.678;6.074;2023-08-06T12:34:24;9.20;;;4.47;;
17618;SDS011;8928;51.678;6.074;2023-08-06T12:37:11;10.63;;;4.47;;
17618;SDS011;8928;51.678;6.074;2023-08-06T12:39:58;10.07;;;4.63;;
17618;SDS011;8928;51.678;6.074;2023-08-06T12:42:45;11.40;;;5.20;;
17618;SDS011;8928;51.678;6.074;2023-08-06T12:45:32;12.53;;;4.90;;
17618;SDS011;8928;51.678;6.074;2023-08-06T12:48:20;8.20;;;5.00;;
17618;SDS011;8928;51.678;6.074;2023-08-06T12:51:08;10.20;;;4.80;;
17618;SDS011;8928;51.678;6.074;2023-08-06T12:53:55;8.47;;;5.23;;
17618;SDS011;8928;51.678;6.074;2023-08-06T12:56:42;11.83;;;5.57;;
17618;SDS011;8928;51.678;6.074;2023-08-06T12:59:29;10.53;;;5.13;;
17618;SDS011;8928;51.678;6.074;2023-08-06T13:02:18;11.20;;;5.10;;
17618;SDS011;8928;51.678;6.074;2023-08-06T13:05:05;11.57;;;4.97;;
17618;SDS011;8928;51.678;6.074;2023-08-06T13:07:55;10.63;;;4.80;;
17618;SDS011;8928;51.678;6.074;2023-08-06T13:10:43;9.50;;;4.43;;
17618;SDS011;8928;51.678;6.074;2023-08-06T13:13:30;9.43;;;4.60;;
17618;SDS011;8928;51.678;6.074;2023-08-06T13:16:17;9.27;;;4.90;;
17618;SDS011;8928;51.678;6.074;2023-08-06T13:19:04;7.90;;;3.87;;
17618;SDS011;8928;51.678;6.074;2023-08-06T13:21:59;8.37;;;3.60;;
17618;SDS011;8928;51.678;6.074;2023-08-06T13:24:50;8.50;;;4.60;;
17618;SDS011;8928;51.678;6.074;2023-08-06T13:27:37;8.73;;;4.10;;
17618;SDS011;8928;51.678;6.074;2023-08-06T13:30:24;8.03;;;4.47;;
17618;SDS011;8928;51.678;6.074;2023-08-06T13:33:11;9.00;;;4.57;;
17618;SDS011;8928;51.678;6.074;2023-08-06T13:35:58;9.20;;;3.93;;
17618;SDS011;8928;51.678;6.074;2023-08-06T13:38:45;6.13;;;3.80;;
17618;SDS011;8928;51.678;6.074;2023-08-06T13:41:34;9.33;;;3.90;;
17618;SDS011;8928;51.678;6.074;2023-08-06T13:44:21;8.77;;;3.67;;
17618;SDS011;8928;51.678;6.074;2023-08-06T13:47:08;7.57;;;4.00;;
17618;SDS011;8928;51.678;6.074;2023-08-06T13:49:55;10.27;;;3.27;;
17618;SDS011;8928;51.678;6.074;2023-08-06T13:52:42;5.73;;;3.43;;
17618;SDS011;8928;51.678;6.074;2023-08-06T13:55:29;9.03;;;3.67;;
17618;SDS011;8928;51.678;6.074;2023-08-06T13:58:18;7.97;;;3.60;;
17618;SDS011;8928;51.678;6.074;2023-08-06T14:01:05;6.00;;;3.60;;
17618;SDS011;8928;51.678;6.074;2023-08-06T14:03:52;7.10;;;3.50;;
17618;SDS011;8928;51.678;6.074;2023-08-06T14:06:39;8.03;;;3.27;;
17618;SDS011;8928;51.678;6.074;2023-08-06T14:09:26;6.80;;;3.00;;
17618;SDS011;8928;51.678;6.074;2023-08-06T14:12:13;9.30;;;3.00;;
17618;SDS011;8928;51.678;6.074;2023-08-06T14:15:02;15.33;;;3.40;;
17618;SDS011;8928;51.678;6.074;2023-08-06T14:17:50;7.73;;;2.90;;
17618;SDS011;8928;51.678;6.074;2023-08-06T14:20:37;8.40;;;3.30;;
17618;SDS011;8928;51.678;6.074;2023-08-06T14:23:24;7.13;;;3.00;;
17618;SDS011;8928;51.678;6.074;2023-08-06T14:26:11;6.47;;;2.90;;
17618;SDS011;8928;51.678;6.074;2023-08-06T14:29:00;9.07;;;3.20;;
17618;SDS011;8928;51.678;6.074;2023-08-06T14:31:49;9.27;;;4.17;;
17618;SDS011;8928;51.678;6.074;2023-08-06T14:34:37;9.37;;;4.20;;
17618;SDS011;8928;51.678;6.074;2023-08-06T14:37:24;10.97;;;4.70;;
17618;SDS011;8928;51.678;6.074;2023-08-06T14:40:11;7.97;;;3.27;;
17618;SDS011;8928;51.678;6.074;2023-08-06T14:42:58;6.27;;;2.90;;
17618;SDS011;8928;51.678;6.074;2023-08-06T14:45:46;7.20;;;3.47;;
17618;SDS011;8928;51.678;6.074;2023-08-06T14:48:34;8.17;;;4.63;;
17618;SDS011;8928;51.678;6.074;2023-08-06T14:51:21;11.13;;;3.97;;
17618;SDS011;8928;51.678;6.074;2023-08-06T14:54:08;6.07;;;3.00;;
17618;SDS011;8928;51.678;6.074;2023-08-06T14:56:55;7.40;;;3.17;;
17618;SDS011;8928;51.678;6.074;2023-08-06T14:59:42;8.37;;;3.17;;
17618;SDS011;8928;51.678;6.074;2023-08-06T15:02:29;6.70;;;3.00;;
17618;SDS011;8928;51.678;6.074;2023-08-06T15:05:18;6.13;;;3.00;;
17618;SDS011;8928;51.678;6.074;2023-08-06T15:08:05;6.90;;;3.33;;
17618;SDS011;8928;51.678;6.074;2023-08-06T15:10:52;6.80;;;3.20;;
17618;SDS011;8928;51.678;6.074;2023-08-06T15:13:39;8.67;;;3.50;;
17618;SDS011;8928;51.678;6.074;2023-08-06T15:16:26;8.43;;;3.80;;
17618;SDS011;8928;51.678;6.074;2023-08-06T15:19:14;9.63;;;4.83;;
17618;SDS011;8928;51.678;6.074;2023-08-06T15:22:02;9.33;;;4.43;;
17618;SDS011;8928;51.678;6.074;2023-08-06T15:24:49;8.90;;;4.20;;
17618;SDS011;8928;51.678;6.074;2023-08-06T15:27:37;10.63;;;4.60;;
17618;SDS011;8928;51.678;6.074;2023-08-06T15:30:25;6.73;;;4.00;;
17618;SDS011;8928;51.678;6.074;2023-08-06T15:33:12;9.73;;;4.13;;
17618;SDS011;8928;51.678;6.074;2023-08-06T15:35:59;9.97;;;4.37;;
17618;SDS011;8928;51.678;6.074;2023-08-06T15:38:48;8.93;;;4.40;;
17618;SDS011;8928;51.678;6.074;2023-08-06T15:41:35;8.77;;;4.13;;
17618;SDS011;8928;51.678;6.074;2023-08-06T15:44:22;10.00;;;4.67;;
17618;SDS011;8928;51.678;6.074;2023-08-06T15:47:09;12.57;;;4.80;;
17618;SDS011;8928;51.678;6.074;2023-08-06T15:49:57;9.77;;;4.70;;
17618;SDS011;8928;51.678;6.074;2023-08-06T15:52:44;9.20;;;4.27;;
17618;SDS011;8928;51.678;6.074;2023-08-06T15:55:32;9.80;;;4.43;;
17618;SDS011;8928;51.678;6.074;2023-08-06T15:58:22;14.30;;;4.50;;
17618;SDS011;8928;51.678;6.074;2023-08-06T16:01:09;9.90;;;3.97;;
17618;SDS011;8928;51.678;6.074;2023-08-06T16:03:57;12.40;;;4.40;;
17618;SDS011;8928;51.678;6.074;2023-08-06T16:06:44;12.03;;;4.70;;
17618;SDS011;8928;51.678;6.074;2023-08-06T16:09:31;10.17;;;4.67;;
17618;SDS011;8928;51.678;6.074;2023-08-06T16:12:19;12.13;;;4.53;;
17618;SDS011;8928;51.678;6.074;2023-08-06T16:15:07;11.40;;;4.97;;
17618;SDS011;8928;51.678;6.074;2023-08-06T16:17:55;7.07;;;4.47;;
17618;SDS011;8928;51.678;6.074;2023-08-06T16:20:42;10.80;;;4.80;;
17618;SDS011;8928;51.678;6.074;2023-08-06T16:23:30;8.07;;;4.30;;
17618;SDS011;8928;51.678;6.074;2023-08-06T16:26:17;8.17;;;4.37;;
17618;SDS011;8928;51.678;6.074;2023-08-06T16:29:05;10.63;;;4.40;;
17618;SDS011;8928;51.678;6.074;2023-08-06T16:31:52;5.70;;;3.10;;
17618;SDS011;8928;51.678;6.074;2023-08-06T16:34:40;10.27;;;2.70;;
17618;SDS011;8928;51.678;6.074;2023-08-06T16:37:27;7.00;;;2.50;;
17618;SDS011;8928;51.678;6.074;2023-08-06T16:40:14;8.87;;;2.33;;
17618;SDS011;8928;51.678;6.074;2023-08-06T16:43:01;7.87;;;2.17;;
17618;SDS011;8928;51.678;6.074;2023-08-06T16:45:50;8.27;;;2.07;;
17618;SDS011;8928;51.678;6.074;2023-08-06T16:48:39;7.27;;;1.70;;
17618;SDS011;8928;51.678;6.074;2023-08-06T16:51:27;6.77;;;1.63;;
17618;SDS011;8928;51.678;6.074;2023-08-06T16:54:14;6.40;;;1.50;;